Arlington, Minnesota
Current Conditions -  °F | °C
As of 3:15 AM on Sunday 21 Dec 2014 (Local Time) from KGYL Reporting Station
Haze Haze  
Wind Chill: 25°   Ceiling: 700
Heat Index: 33°   Visibility: 5mi
Dew Point: 32°   Wind: 9mph
Humidity: 96%   Direction: 150°SSE
Pressure: 29.95"   Gusts: NA
Location:  44.61°N, 94.08°W
Report Text: KGYL 210915Z AUTO 15008KT 5SM BR OVC007 01/00 A2995 RMK AO2 T00050000
Loading
Personal Weather Stations






























Interactive Weather Map New forecast layout! Learn more

10-Day Weather Forecast

Advertisements
Track Severe Weather on mobile